Time;durP1;ratioP1;P1;durP2;ratioP2;P2;SDS_P1;SDS_P2;PMS_P1;PMS_P2;Temp;Humidity;BMP_temperature;BMP_pressure;BME280_temperature;BME280_humidity;BME280_pressure;Samples;Min_cycle;Max_cycle;Signal;HPM_P1;HPM_P2
2023/06/17 00:00:41;;;;;;;13.45;8.57;;;15.70;99.90;;;;;;4973936;28;20300;-65
2023/06/17 00:03:08;;;;;;;13.50;8.93;;;15.70;99.90;;;;;;5003426;28;20225;-64
2023/06/17 00:05:34;;;;;;;15.02;9.05;;;15.70;99.90;;;;;;4991589;28;20201;-65
2023/06/17 00:08:01;;;;;;;9.30;8.32;;;15.60;99.90;;;;;;4977268;28;20639;-65
2023/06/17 00:10:29;;;;;;;13.25;8.50;;;15.80;99.90;;;;;;5005202;28;20206;-65
2023/06/17 00:12:58;;;;;;;14.30;9.20;;;15.80;99.90;;;;;;4993771;28;20259;-65
2023/06/17 00:15:25;;;;;;;15.38;9.55;;;15.90;99.90;;;;;;4994221;28;20928;-65
2023/06/17 00:17:52;;;;;;;14.13;8.98;;;15.80;99.90;;;;;;5006535;28;20705;-65
2023/06/17 00:20:20;;;;;;;16.50;10.25;;;15.90;99.90;;;;;;5001935;28;20198;-64
2023/06/17 00:22:46;;;;;;;17.20;10.35;;;16.00;99.90;;;;;;4972845;28;20221;-65
2023/06/17 00:25:13;;;;;;;15.95;10.98;;;16.00;99.90;;;;;;5001706;28;20683;-65
2023/06/17 00:27:42;;;;;;;12.35;10.45;;;16.00;99.90;;;;;;4992737;28;20202;-65
2023/06/17 00:30:09;;;;;;;13.85;11.35;;;16.00;99.90;;;;;;5002020;28;20198;-65
2023/06/17 00:32:37;;;;;;;14.05;11.48;;;16.00;99.90;;;;;;4991319;28;20360;-65
2023/06/17 00:35:05;;;;;;;18.98;12.90;;;15.90;99.90;;;;;;5005853;28;20586;-65
2023/06/17 00:37:32;;;;;;;18.83;13.38;;;16.00;99.90;;;;;;4972418;28;20237;-65
2023/06/17 00:39:59;;;;;;;21.55;14.23;;;16.00;99.90;;;;;;4990632;28;20206;-65
2023/06/17 00:42:26;;;;;;;21.58;13.57;;;15.90;99.90;;;;;;4997078;28;20396;-65
2023/06/17 00:44:54;;;;;;;21.35;13.60;;;16.20;99.90;;;;;;4991050;28;20710;-65
2023/06/17 00:47:21;;;;;;;18.38;14.48;;;15.90;99.90;;;;;;4993195;28;20202;-65
2023/06/17 00:49:48;;;;;;;21.23;13.07;;;15.90;99.90;;;;;;4988544;28;20198;-65
2023/06/17 00:52:15;;;;;;;17.45;13.75;;;15.90;99.90;;;;;;5010608;28;20257;-65
2023/06/17 00:54:43;;;;;;;16.27;12.52;;;16.60;99.90;;;;;;4959265;28;21034;-65
2023/06/17 00:57:13;;;;;;;19.20;13.32;;;15.90;99.90;;;;;;4998413;28;20255;-65
2023/06/17 00:59:41;;;;;;;18.52;14.65;;;15.90;99.90;;;;;;4987741;28;20202;-65
2023/06/17 01:02:10;;;;;;;19.52;12.88;;;15.90;99.90;;;;;;5002798;28;20202;-65
2023/06/17 01:04:38;;;;;;;19.73;13.30;;;14.80;99.90;;;;;;4992744;28;20212;-65
2023/06/17 01:07:30;;;;;;;16.05;13.38;;;15.90;99.90;;;;;;5007711;28;20514;-65
2023/06/17 01:10:02;;;;;;;18.80;13.45;;;15.80;99.90;;;;;;4980074;28;20252;-65
2023/06/17 01:12:30;;;;;;;19.23;13.93;;;15.80;99.90;;;;;;4997573;28;20549;-65
2023/06/17 01:14:58;;;;;;;18.63;14.02;;;15.80;99.90;;;;;;4984830;28;20233;-65
2023/06/17 01:17:28;;;;;;;20.05;13.70;;;15.80;99.90;;;;;;5007028;28;20226;-65
2023/06/17 01:19:56;;;;;;;19.23;14.35;;;15.80;99.90;;;;;;4989986;28;20861;-65
2023/06/17 01:22:25;;;;;;;18.92;14.13;;;15.80;99.90;;;;;;5010584;28;21749;-65
2023/06/17 01:24:56;;;;;;;20.00;13.65;;;15.90;99.90;;;;;;4972342;28;20205;-65
2023/06/17 01:27:23;;;;;;;23.70;13.98;;;15.90;99.90;;;;;;5011108;28;20221;-65
2023/06/17 01:29:50;;;;;;;19.35;14.25;;;15.90;99.90;;;;;;4996534;28;20793;-65
2023/06/17 01:32:17;;;;;;;25.15;14.75;;;15.90;99.90;;;;;;4992327;28;20209;-65
2023/06/17 01:34:50;;;;;;;30.00;14.57;;;15.90;99.90;;;;;;4988124;28;20884;-65
2023/06/17 01:37:24;;;;;;;23.30;13.77;;;15.90;99.90;;;;;;5010747;28;20627;-65
2023/06/17 01:39:55;;;;;;;22.58;14.30;;;15.90;99.90;;;;;;4961956;28;20228;-65
2023/06/17 01:42:28;;;;;;;20.00;13.23;;;16.00;99.90;;;;;;5003152;28;20213;-65
2023/06/17 01:44:57;;;;;;;17.48;13.88;;;16.00;99.90;;;;;;4980825;28;20434;-66
2023/06/17 01:47:24;;;;;;;21.67;13.85;;;16.00;99.90;;;;;;4996494;28;20206;-65
2023/06/17 01:49:51;;;;;;;22.50;14.50;;;16.00;99.90;;;;;;4990378;28;23196;-65
2023/06/17 01:52:18;;;;;;;22.52;13.43;;;16.00;99.90;;;;;;5006721;28;20229;-65
2023/06/17 01:54:45;;;;;;;22.13;14.10;;;16.00;99.90;;;;;;4961014;28;20221;-65
2023/06/17 01:57:13;;;;;;;19.77;14.18;;;16.00;99.90;;;;;;5005533;28;20222;-65
2023/06/17 01:59:40;;;;;;;18.02;13.77;;;15.90;99.90;;;;;;4989238;28;20551;-65
2023/06/17 02:02:06;;;;;;;17.50;13.93;;;15.90;99.90;;;;;;4990534;28;20618;-66
2023/06/17 02:04:33;;;;;;;18.15;14.50;;;15.70;99.90;;;;;;4998459;28;20196;-65
2023/06/17 02:07:00;;;;;;;19.13;14.45;;;16.00;99.90;;;;;;4989893;28;20427;-65
2023/06/17 02:09:27;;;;;;;20.10;15.20;;;16.00;99.90;;;;;;5004302;28;20205;-65
2023/06/17 02:11:54;;;;;;;20.48;14.38;;;16.00;99.90;;;;;;4974405;28;20206;-65
2023/06/17 02:14:22;;;;;;;18.30;13.02;;;16.00;99.90;;;;;;4995121;28;20209;-65
2023/06/17 02:16:50;;;;;;;18.55;13.80;;;16.10;99.90;;;;;;4996552;28;20237;-65
2023/06/17 02:19:16;;;;;;;20.30;12.43;;;16.00;99.90;;;;;;4993749;28;20202;-65
2023/06/17 02:21:43;;;;;;;22.48;13.27;;;16.00;99.90;;;;;;4993833;28;20194;-65
2023/06/17 02:24:10;;;;;;;21.33;12.75;;;16.10;99.90;;;;;;5005171;28;20198;-65
2023/06/17 02:26:39;;;;;;;19.15;12.65;;;16.00;99.90;;;;;;4972993;28;20337;-65
2023/06/17 02:29:06;;;;;;;21.38;12.93;;;16.10;99.90;;;;;;4989684;28;20202;-65
2023/06/17 02:31:34;;;;;;;15.68;12.63;;;16.10;99.90;;;;;;5005935;28;20196;-66
2023/06/17 02:34:02;;;;;;;17.13;13.55;;;16.10;99.90;;;;;;4999672;28;20404;-65
2023/06/17 02:36:29;;;;;;;20.00;14.48;;;16.10;99.90;;;;;;5003147;28;20202;-65
2023/06/17 02:38:58;;;;;;;18.45;12.57;;;16.10;99.90;;;;;;4975696;28;20226;-65
2023/06/17 02:41:25;;;;;;;20.40;13.80;;;16.10;99.90;;;;;;4974867;28;20692;-65
2023/06/17 02:43:51;;;;;;;20.65;13.43;;;16.10;99.90;;;;;;5001973;28;20452;-66
2023/06/17 02:46:18;;;;;;;20.33;13.50;;;16.10;99.90;;;;;;4991625;28;20246;-65
2023/06/17 02:48:46;;;;;;;21.55;13.02;;;16.10;99.90;;;;;;4989892;28;20199;-66
2023/06/17 02:51:13;;;;;;;19.50;14.07;;;16.10;99.90;;;;;;5004052;28;20206;-65
2023/06/17 02:53:40;;;;;;;16.85;12.77;;;16.00;99.90;;;;;;4995295;28;20206;-65
2023/06/17 02:56:07;;;;;;;18.95;12.38;;;16.10;99.90;;;;;;4998905;28;20610;-65
2023/06/17 02:58:34;;;;;;;16.35;12.27;;;16.10;99.90;;;;;;4974195;28;20230;-65
2023/06/17 03:01:01;;;;;;;19.92;12.80;;;16.10;99.90;;;;;;4990940;28;20468;-65
2023/06/17 03:03:34;;;;;;;18.17;12.68;;;16.00;99.90;;;;;;4999603;28;20198;-65
2023/06/17 03:06:03;;;;;;;21.40;13.02;;;16.00;99.90;;;;;;5005592;28;20276;-65
2023/06/17 03:08:31;;;;;;;17.15;13.07;;;16.00;99.90;;;;;;5006843;28;21226;-65
2023/06/17 03:10:57;;;;;;;23.80;13.95;;;16.00;99.90;;;;;;4994920;28;20206;-65
2023/06/17 03:13:24;;;;;;;21.45;13.02;;;16.00;99.90;;;;;;4971909;28;20217;-65
2023/06/17 03:15:53;;;;;;;18.20;13.07;;;15.90;99.90;;;;;;4991261;28;20221;-66
2023/06/17 03:18:20;;;;;;;19.15;12.93;;;15.90;99.90;;;;;;5006982;28;20234;-65
2023/06/17 03:20:47;;;;;;;19.80;13.00;;;15.90;99.90;;;;;;4994113;28;20202;-65
2023/06/17 03:23:15;;;;;;;21.98;13.50;;;15.90;99.90;;;;;;5007554;28;20209;-65
2023/06/17 03:25:42;;;;;;;18.25;13.20;;;16.00;99.90;;;;;;4988569;28;20953;-65
2023/06/17 03:28:09;;;;;;;17.92;12.77;;;16.00;99.90;;;;;;4977377;28;20202;-65
2023/06/17 03:30:36;;;;;;;18.90;13.77;;;16.00;99.90;;;;;;4998907;28;20206;-65
2023/06/17 03:33:03;;;;;;;18.30;12.02;;;16.00;99.90;;;;;;4991768;28;20295;-65
2023/06/17 03:35:29;;;;;;;16.17;13.00;;;16.00;99.90;;;;;;4998418;28;20317;-65
2023/06/17 03:37:56;;;;;;;19.10;12.63;;;16.00;99.90;;;;;;4998280;28;20744;-65
2023/06/17 03:40:24;;;;;;;18.00;12.75;;;16.00;99.90;;;;;;5003246;28;20221;-65
2023/06/17 03:42:51;;;;;;;17.50;12.23;;;16.10;99.90;;;;;;4988628;28;20197;-65
2023/06/17 03:45:18;;;;;;;17.48;12.73;;;16.10;99.90;;;;;;4974888;28;20527;-65
2023/06/17 03:47:46;;;;;;;15.57;11.40;;;16.10;99.90;;;;;;4997061;28;20236;-66
2023/06/17 03:50:13;;;;;;;15.60;12.30;;;16.20;99.90;;;;;;5001526;28;22151;-66
2023/06/17 03:52:40;;;;;;;19.13;12.27;;;16.10;99.90;;;;;;5004179;28;20198;-65
2023/06/17 03:55:07;;;;;;;20.50;12.43;;;16.10;99.90;;;;;;5006904;28;20204;-65
2023/06/17 03:57:36;;;;;;;19.65;12.82;;;16.10;99.90;;;;;;4992493;28;20392;-65
2023/06/17 04:00:03;;;;;;;16.05;12.75;;;16.10;99.90;;;;;;4966648;28;20493;-66
2023/06/17 04:02:30;;;;;;;17.35;12.60;;;16.10;99.90;;;;;;5006163;28;20202;-65
2023/06/17 04:05:01;;;;;;;22.67;13.23;;;16.10;99.90;;;;;;4982678;28;20943;-66
2023/06/17 04:07:28;;;;;;;17.52;13.13;;;16.10;99.90;;;;;;5007893;28;20668;-66
2023/06/17 04:09:55;;;;;;;18.60;13.00;;;16.20;99.90;;;;;;5006764;28;20194;-65
2023/06/17 04:12:22;;;;;;;18.33;12.90;;;16.20;99.90;;;;;;4994224;28;20273;-65
2023/06/17 04:14:50;;;;;;;17.83;13.15;;;16.20;99.90;;;;;;4972021;28;21164;-66
2023/06/17 04:17:17;;;;;;;16.80;12.02;;;16.20;99.90;;;;;;5002578;28;20203;-65
2023/06/17 04:19:44;;;;;;;15.98;11.80;;;16.20;99.90;;;;;;4992389;28;20238;-65
2023/06/17 04:22:11;;;;;;;14.82;11.80;;;16.20;99.90;;;;;;4990026;28;20193;-65
2023/06/17 04:24:38;;;;;;;20.60;11.88;;;16.20;99.90;;;;;;5005056;28;20229;-66
2023/06/17 04:27:07;;;;;;;21.23;12.18;;;16.20;99.90;;;;;;4993110;28;20941;-66
2023/06/17 04:29:34;;;;;;;17.67;11.50;;;16.20;99.90;;;;;;4991257;28;20205;-66
2023/06/17 04:32:03;;;;;;;21.05;12.55;;;16.20;99.90;;;;;;4982300;28;20850;-66
2023/06/17 04:34:30;;;;;;;18.45;12.38;;;16.10;99.90;;;;;;4997388;28;20203;-66
2023/06/17 04:36:57;;;;;;;19.73;12.38;;;16.10;99.90;;;;;;4982248;28;20665;-66
2023/06/17 04:39:25;;;;;;;18.17;13.00;;;16.10;99.90;;;;;;5008836;28;20226;-65
2023/06/17 04:41:51;;;;;;;20.98;12.32;;;16.10;99.90;;;;;;4990339;28;20877;-65
2023/06/17 04:44:18;;;;;;;18.23;12.32;;;16.10;99.90;;;;;;5008161;28;20195;-65
2023/06/17 04:46:46;;;;;;;17.20;11.50;;;16.10;99.90;;;;;;4973886;28;20217;-65
2023/06/17 04:49:14;;;;;;;19.20;12.05;;;16.10;99.90;;;;;;5011198;28;20229;-66
2023/06/17 04:51:41;;;;;;;19.60;12.43;;;16.10;99.90;;;;;;5003024;28;20206;-65
2023/06/17 04:54:08;;;;;;;17.92;12.15;;;16.10;99.90;;;;;;4993375;28;20205;-65
2023/06/17 04:56:36;;;;;;;20.42;12.82;;;16.00;99.90;;;;;;5009025;28;20194;-65
2023/06/17 04:59:03;;;;;;;18.98;12.13;;;16.20;99.90;;;;;;4995124;28;20226;-65
2023/06/17 05:01:30;;;;;;;19.70;12.70;;;16.20;99.90;;;;;;4973887;28;20206;-65
2023/06/17 05:03:56;;;;;;;19.40;11.88;;;16.20;99.90;;;;;;5004772;28;20683;-65
2023/06/17 05:06:24;;;;;;;17.35;11.65;;;16.30;99.90;;;;;;5009699;28;20668;-65
2023/06/17 05:08:51;;;;;;;21.00;12.65;;;16.30;99.90;;;;;;4984874;28;20224;-66
2023/06/17 05:11:18;;;;;;;17.48;11.63;;;16.30;99.90;;;;;;5005732;28;20209;-65
2023/06/17 05:13:45;;;;;;;18.73;12.45;;;16.20;99.90;;;;;;4989059;28;20211;-65
2023/06/17 05:16:11;;;;;;;25.02;12.52;;;16.30;99.90;;;;;;5005218;28;20218;-65
2023/06/17 05:18:39;;;;;;;20.20;11.75;;;;;;;;;;4973022;28;20226;-65
2023/06/17 05:21:06;;;;;;;15.88;11.98;;;16.30;99.90;;;;;;5008975;28;20202;-65
2023/06/17 05:23:34;;;;;;;18.33;11.80;;;16.30;99.90;;;;;;4984577;28;20205;-66
2023/06/17 05:26:01;;;;;;;15.57;11.23;;;16.40;99.90;;;;;;5004173;28;20210;-65
2023/06/17 05:28:28;;;;;;;16.63;11.45;;;16.30;99.90;;;;;;4995032;28;20221;-65
2023/06/17 05:30:54;;;;;;;19.05;11.98;;;16.40;99.90;;;;;;4997945;28;20202;-65
2023/06/17 05:33:22;;;;;;;16.10;11.88;;;16.40;99.90;;;;;;4972579;28;20680;-65
2023/06/17 05:35:49;;;;;;;15.82;11.15;;;16.40;99.90;;;;;;4998745;28;20928;-65
2023/06/17 05:38:16;;;;;;;19.17;10.95;;;16.40;99.90;;;;;;4981748;28;20817;-65
2023/06/17 05:40:44;;;;;;;18.13;11.65;;;16.40;99.90;;;;;;5001118;28;20206;-66
2023/06/17 05:43:11;;;;;;;17.77;10.52;;;16.50;99.90;;;;;;4987962;28;20198;-65
2023/06/17 05:45:37;;;;;;;18.90;12.10;;;16.50;99.90;;;;;;4998848;28;20194;-65
2023/06/17 05:48:05;;;;;;;19.92;10.65;;;16.50;99.90;;;;;;5006760;28;20420;-65
2023/06/17 05:50:31;;;;;;;16.83;11.55;;;16.50;99.90;;;;;;4969552;28;20210;-65
2023/06/17 05:52:58;;;;;;;23.00;11.68;;;16.50;99.90;;;;;;4989432;28;20209;-66
2023/06/17 05:55:25;;;;;;;20.90;10.18;;;16.50;99.90;;;;;;4985936;28;20202;-65
2023/06/17 05:57:54;;;;;;;19.55;11.30;;;16.60;99.90;;;;;;4971759;28;20748;-66
2023/06/17 06:00:22;;;;;;;16.13;10.90;;;16.50;99.90;;;;;;5000479;28;20299;-65
2023/06/17 06:02:48;;;;;;;25.10;11.50;;;16.50;99.90;;;;;;4995008;28;20280;-65
2023/06/17 06:05:15;;;;;;;21.92;12.10;;;16.50;99.90;;;;;;4965205;28;20205;-65
2023/06/17 06:07:43;;;;;;;18.40;11.02;;;16.50;99.90;;;;;;4997801;28;20238;-65
2023/06/17 06:10:10;;;;;;;14.93;10.13;;;16.50;99.90;;;;;;4976877;28;20213;-66
2023/06/17 06:12:38;;;;;;;18.08;11.23;;;16.50;99.90;;;;;;4976202;28;20229;-66
2023/06/17 06:15:07;;;;;;;17.75;10.52;;;16.60;99.90;;;;;;4984286;28;20693;-66
2023/06/17 06:17:34;;;;;;;17.13;11.52;;;16.70;99.90;;;;;;4999316;28;20191;-66
2023/06/17 06:20:01;;;;;;;20.02;11.65;;;16.70;99.90;;;;;;4992249;28;20246;-65
2023/06/17 06:22:28;;;;;;;19.85;11.27;;;16.70;99.90;;;;;;4966069;28;20211;-66
2023/06/17 06:24:54;;;;;;;16.83;10.55;;;16.80;99.90;;;;;;4985434;28;20595;-66
2023/06/17 06:27:21;;;;;;;20.20;10.85;;;16.80;99.90;;;;;;4984662;28;20208;-65
2023/06/17 06:29:48;;;;;;;23.05;10.52;;;16.80;99.90;;;;;;4987537;28;21221;-66
2023/06/17 06:32:16;;;;;;;13.27;9.55;;;16.80;99.90;;;;;;5000337;28;20224;-65
2023/06/17 06:34:45;;;;;;;17.25;9.80;;;16.70;99.90;;;;;;4985597;28;20209;-65
2023/06/17 06:37:12;;;;;;;14.55;10.45;;;16.80;99.90;;;;;;4966404;28;20271;-65
2023/06/17 06:39:38;;;;;;;17.50;11.02;;;16.80;99.90;;;;;;4991425;28;20218;-66
2023/06/17 06:42:06;;;;;;;14.65;10.43;;;16.80;99.90;;;;;;4991846;28;20638;-66
2023/06/17 06:44:33;;;;;;;21.55;11.02;;;16.80;99.90;;;;;;4988769;28;20198;-66
2023/06/17 06:47:00;;;;;;;21.20;10.80;;;16.80;99.90;;;;;;5006154;28;20220;-65
2023/06/17 06:49:28;;;;;;;18.20;10.32;;;16.80;99.90;;;;;;5005853;28;20245;-66
2023/06/17 06:51:55;;;;;;;21.65;10.82;;;16.90;99.90;;;;;;4963644;28;20715;-66
2023/06/17 06:54:21;;;;;;;19.00;9.95;;;16.90;99.90;;;;;;5011029;28;20190;-65
2023/06/17 06:56:48;;;;;;;18.50;10.32;;;17.00;99.90;;;;;;4993571;28;20433;-65
2023/06/17 06:59:16;;;;;;;23.13;10.77;;;17.00;99.90;;;;;;5005286;28;20229;-66
2023/06/17 07:01:42;;;;;;;15.38;10.02;;;17.00;99.90;;;;;;4991701;28;20213;-65
2023/06/17 07:04:10;;;;;;;17.35;10.63;;;17.00;99.90;;;;;;5012114;28;20208;-65
2023/06/17 07:06:38;;;;;;;16.40;10.10;;;17.00;99.90;;;;;;4975501;28;20213;-66
2023/06/17 07:09:05;;;;;;;18.48;10.45;;;17.00;99.90;;;;;;5003835;28;20237;-65
2023/06/17 07:11:32;;;;;;;17.45;10.85;;;17.00;99.90;;;;;;4989866;28;20245;-66
2023/06/17 07:13:59;;;;;;;18.02;9.73;;;17.00;99.90;;;;;;4982997;28;20210;-65
2023/06/17 07:16:25;;;;;;;17.40;10.45;;;17.00;99.90;;;;;;4992828;28;20206;-66
2023/06/17 07:18:52;;;;;;;18.00;10.23;;;16.30;99.90;;;;;;5004210;28;20520;-66
2023/06/17 07:21:19;;;;;;;18.30;10.77;;;17.10;99.90;;;;;;4996709;28;20194;-66
2023/06/17 07:23:47;;;;;;;18.63;10.45;;;17.10;99.90;;;;;;4977080;28;20793;-66
2023/06/17 07:26:14;;;;;;;18.52;9.65;;;17.20;99.90;;;;;;4997216;28;20206;-66
2023/06/17 07:28:41;;;;;;;14.82;9.50;;;17.20;99.90;;;;;;4989454;28;20206;-66
2023/06/17 07:31:08;;;;;;;17.83;10.23;;;17.30;99.90;;;;;;4991458;28;20229;-66
2023/06/17 07:33:34;;;;;;;12.73;8.98;;;17.30;99.90;;;;;;5002602;28;20190;-66
2023/06/17 07:36:01;;;;;;;15.45;10.18;;;17.30;99.90;;;;;;4993530;28;20679;-65
2023/06/17 07:38:28;;;;;;;14.77;9.25;;;17.40;99.90;;;;;;4975441;28;20206;-66
2023/06/17 07:40:57;;;;;;;15.13;9.80;;;17.40;99.90;;;;;;4999942;28;20326;-65
2023/06/17 07:43:23;;;;;;;14.32;9.30;;;17.40;99.90;;;;;;5002636;28;20225;-66
2023/06/17 07:45:50;;;;;;;16.20;9.85;;;17.50;99.90;;;;;;4991528;28;20211;-66
2023/06/17 07:48:17;;;;;;;14.85;9.57;;;17.50;99.90;;;;;;5006567;28;20218;-66
2023/06/17 07:50:44;;;;;;;20.00;9.93;;;17.50;99.90;;;;;;4991191;28;20217;-65
2023/06/17 07:53:10;;;;;;;21.17;10.70;;;17.50;99.90;;;;;;4960195;28;20218;-65
2023/06/17 07:55:39;;;;;;;18.25;11.05;;;17.50;99.90;;;;;;4998127;28;20214;-65
2023/06/17 07:58:07;;;;;;;14.35;9.48;;;17.50;99.90;;;;;;4996615;28;20214;-65
2023/06/17 08:00:34;;;;;;;16.85;9.73;;;17.50;99.90;;;;;;4978481;28;20222;-66
2023/06/17 08:03:00;;;;;;;13.30;9.50;;;17.60;99.90;;;;;;4973138;28;20579;-65
2023/06/17 08:05:27;;;;;;;18.58;9.93;;;17.60;99.90;;;;;;4982416;28;20221;-66
2023/06/17 08:07:54;;;;;;;16.45;11.30;;;17.50;99.90;;;;;;4964617;28;21150;-66
2023/06/17 08:10:21;;;;;;;16.95;9.63;;;17.60;99.90;;;;;;4952258;28;20711;-66
2023/06/17 08:12:48;;;;;;;23.45;10.73;;;17.60;99.90;;;;;;4982082;28;20225;-66
2023/06/17 08:15:16;;;;;;;22.45;11.15;;;17.60;99.90;;;;;;4981775;28;20222;-65
2023/06/17 08:17:43;;;;;;;16.85;10.48;;;17.60;99.90;;;;;;4985751;28;20222;-66
2023/06/17 08:20:11;;;;;;;21.45;10.30;;;17.70;99.90;;;;;;4985579;28;20873;-66
2023/06/17 08:22:37;;;;;;;18.33;9.68;;;17.70;99.90;;;;;;4982821;28;20210;-66
2023/06/17 08:25:05;;;;;;;18.08;10.20;;;17.90;99.90;;;;;;4968053;28;20218;-66
2023/06/17 08:27:32;;;;;;;17.08;9.95;;;18.00;99.90;;;;;;4991450;28;20206;-66
2023/06/17 08:29:59;;;;;;;17.20;9.25;;;18.10;99.90;;;;;;4998462;28;20201;-65
2023/06/17 08:32:27;;;;;;;23.88;9.77;;;18.20;99.90;;;;;;4984384;28;20226;-66
2023/06/17 08:34:54;;;;;;;19.05;10.57;;;18.20;99.90;;;;;;5001377;28;20222;-66
2023/06/17 08:37:21;;;;;;;12.00;8.85;;;18.30;99.90;;;;;;4989630;28;20711;-66
2023/06/17 08:39:48;;;;;;;19.55;10.10;;;18.30;99.90;;;;;;4989284;28;20226;-66
2023/06/17 08:42:14;;;;;;;18.10;10.23;;;18.30;99.90;;;;;;4967803;28;20233;-65
2023/06/17 08:44:44;;;;;;;18.00;10.07;;;18.40;99.90;;;;;;4992400;28;20222;-65
2023/06/17 08:47:15;;;;;;;18.50;10.27;;;18.50;99.90;;;;;;4989666;28;21004;-66
2023/06/17 08:49:45;;;;;;;17.38;10.93;;;18.30;99.90;;;;;;4997632;28;20206;-65
2023/06/17 08:52:13;;;;;;;18.83;9.98;;;18.50;99.90;;;;;;4982129;28;20275;-66
2023/06/17 08:54:41;;;;;;;25.45;11.40;;;18.40;99.90;;;;;;4982662;28;20234;-67
2023/06/17 08:57:11;;;;;;;18.70;10.18;;;18.40;99.90;;;;;;4975341;28;20217;-66
2023/06/17 08:59:38;;;;;;;16.48;9.88;;;18.40;99.90;;;;;;5008993;28;20227;-66
2023/06/17 09:02:05;;;;;;;19.65;11.63;;;18.40;99.90;;;;;;5005128;28;20210;-66
2023/06/17 09:04:33;;;;;;;16.70;10.82;;;18.50;99.90;;;;;;4985781;28;20226;-66
2023/06/17 09:07:01;;;;;;;21.02;9.60;;;18.50;99.90;;;;;;4972990;28;20241;-66
2023/06/17 09:09:28;;;;;;;15.77;9.95;;;18.60;99.90;;;;;;4991113;28;20520;-66
2023/06/17 09:11:54;;;;;;;17.52;10.02;;;18.60;99.90;;;;;;5002134;28;20198;-66
2023/06/17 09:14:24;;;;;;;22.27;10.30;;;18.70;99.90;;;;;;4964220;28;21516;-66
2023/06/17 09:16:51;;;;;;;14.88;9.15;;;18.60;99.90;;;;;;4999585;28;20680;-65
2023/06/17 09:19:19;;;;;;;17.17;10.43;;;18.70;99.90;;;;;;4982228;28;20228;-66
2023/06/17 09:21:47;;;;;;;14.27;10.00;;;18.70;99.90;;;;;;4988471;28;20232;-66
2023/06/17 09:24:15;;;;;;;15.65;10.05;;;18.70;99.90;;;;;;4993345;28;20198;-66
2023/06/17 09:26:43;;;;;;;14.18;9.88;;;18.60;99.90;;;;;;4992368;28;20218;-66
2023/06/17 09:29:11;;;;;;;19.38;9.75;;;18.50;99.90;;;;;;4968322;28;20206;-66
2023/06/17 09:31:49;;;;;;;18.00;10.27;;;18.70;99.90;;;;;;5000583;28;20587;-66
2023/06/17 09:34:16;;;;;;;13.35;9.88;;;18.70;99.90;;;;;;4998697;28;20199;-66
2023/06/17 09:36:42;;;;;;;15.35;9.52;;;18.90;99.90;;;;;;4978118;28;20586;-66
2023/06/17 09:39:12;;;;;;;15.88;9.45;;;19.10;99.90;;;;;;5001337;28;20840;-66
2023/06/17 09:41:41;;;;;;;15.27;9.77;;;19.30;99.90;;;;;;4983969;28;20237;-66
2023/06/17 09:44:08;;;;;;;13.45;9.00;;;19.30;99.90;;;;;;4966741;28;20217;-66
2023/06/17 09:46:39;;;;;;;16.08;9.10;;;19.40;99.90;;;;;;5009847;28;20209;-66
2023/06/17 09:49:09;;;;;;;14.35;9.20;;;19.10;99.90;;;;;;5001183;28;20760;-66
2023/06/17 09:51:37;;;;;;;13.10;9.23;;;19.10;99.90;;;;;;4979895;28;20373;-66
2023/06/17 09:54:05;;;;;;;15.68;9.60;;;19.50;99.90;;;;;;5000653;28;20321;-66
2023/06/17 09:56:33;;;;;;;11.80;8.77;;;19.40;99.90;;;;;;4981672;28;20221;-66
2023/06/17 09:59:03;;;;;;;14.95;9.60;;;19.50;99.90;;;;;;4982607;28;20226;-66
2023/06/17 10:01:31;;;;;;;16.85;8.70;;;19.70;99.90;;;;;;4970239;28;20229;-66
2023/06/17 10:03:59;;;;;;;17.73;9.23;;;19.90;99.90;;;;;;4993405;28;20269;-66
2023/06/17 10:06:29;;;;;;;15.35;8.88;;;19.90;99.90;;;;;;5000114;28;20226;-66
2023/06/17 10:08:57;;;;;;;18.05;9.73;;;19.90;99.90;;;;;;4993552;28;20202;-66
2023/06/17 10:11:25;;;;;;;14.57;9.90;;;20.00;99.90;;;;;;4986178;28;20236;-66
2023/06/17 10:13:58;;;;;;;13.00;9.52;;;20.10;99.90;;;;;;4996670;28;20197;-66
2023/06/17 10:16:28;;;;;;;14.80;9.13;;;20.00;99.90;;;;;;4964725;28;20230;-66
2023/06/17 10:18:57;;;;;;;16.20;9.35;;;20.00;99.90;;;;;;4990222;28;20249;-66
2023/06/17 10:21:26;;;;;;;11.43;8.82;;;20.40;99.90;;;;;;4985098;28;20826;-66
2023/06/17 10:23:56;;;;;;;12.90;8.80;;;20.30;99.90;;;;;;4978622;28;20227;-66
2023/06/17 10:26:23;;;;;;;15.48;9.85;;;20.40;99.90;;;;;;4976542;28;20627;-65
2023/06/17 10:28:59;;;;;;;14.98;9.02;;;20.50;99.90;;;;;;4989887;28;20321;-66
2023/06/17 10:31:28;;;;;;;17.20;9.20;;;20.50;99.90;;;;;;4966411;28;20721;-66
2023/06/17 10:33:57;;;;;;;12.55;7.88;;;20.50;99.90;;;;;;4984029;28;20222;-66
2023/06/17 10:36:26;;;;;;;13.18;8.50;;;20.50;99.90;;;;;;4980618;28;20195;-66
2023/06/17 10:38:55;;;;;;;13.50;8.75;;;20.60;99.90;;;;;;4981126;28;20210;-66
2023/06/17 10:41:22;;;;;;;11.93;8.88;;;20.80;99.90;;;;;;4990851;28;20317;-66
2023/06/17 10:43:49;;;;;;;13.77;8.65;;;20.90;99.90;;;;;;5000606;28;20202;-66
2023/06/17 10:46:24;;;;;;;18.83;8.15;;;20.80;99.90;;;;;;5001157;28;20194;-66
2023/06/17 10:48:58;;;;;;;12.48;8.45;;;20.90;99.90;;;;;;4955515;28;20223;-65
2023/06/17 10:51:25;;;;;;;17.02;8.68;;;20.80;99.90;;;;;;4995566;28;20225;-65
2023/06/17 10:53:52;;;;;;;11.43;8.40;;;20.80;99.90;;;;;;4974909;28;20685;-66
2023/06/17 10:56:20;;;;;;;12.32;7.72;;;20.90;99.90;;;;;;4990552;28;20214;-65
2023/06/17 10:58:48;;;;;;;15.52;8.57;;;20.90;99.90;;;;;;4989522;28;20389;-66
2023/06/17 11:01:15;;;;;;;12.70;8.20;;;21.00;99.90;;;;;;4996908;28;20233;-66
2023/06/17 11:03:42;;;;;;;10.35;7.75;;;21.10;99.90;;;;;;4969326;28;20225;-66
2023/06/17 11:06:10;;;;;;;15.70;8.73;;;21.00;99.90;;;;;;4987617;28;20222;-66
2023/06/17 11:08:38;;;;;;;13.07;8.15;;;21.00;99.90;;;;;;4960739;28;20242;-65
2023/06/17 11:11:09;;;;;;;21.98;9.20;;;21.10;99.90;;;;;;4955152;28;20215;-66
2023/06/17 11:13:37;;;;;;;15.27;8.85;;;21.10;99.90;;;;;;4994360;28;20202;-66
2023/06/17 11:16:05;;;;;;;11.07;7.80;;;21.00;99.90;;;;;;5000860;28;21373;-66
2023/06/17 11:18:34;;;;;;;13.98;8.48;;;21.10;99.90;;;;;;5008477;28;20615;-66
2023/06/17 11:21:01;;;;;;;12.02;7.82;;;21.10;99.90;;;;;;4975576;28;20246;-66
2023/06/17 11:23:29;;;;;;;12.05;8.02;;;21.30;99.90;;;;;;4998162;28;20741;-65
2023/06/17 11:25:56;;;;;;;10.82;8.50;;;21.20;99.90;;;;;;4997179;28;20213;-66
2023/06/17 11:28:23;;;;;;;10.70;8.02;;;21.20;99.90;;;;;;5003788;28;20201;-65
2023/06/17 11:30:50;;;;;;;9.48;7.63;;;21.30;99.90;;;;;;4991936;28;20703;-66
2023/06/17 11:33:20;;;;;;;15.45;8.27;;;21.30;99.90;;;;;;5003694;28;20198;-65
2023/06/17 11:35:48;;;;;;;12.40;7.97;;;21.50;99.90;;;;;;4975771;28;20217;-65
2023/06/17 11:38:16;;;;;;;13.10;8.65;;;21.30;99.90;;;;;;5004978;28;20202;-66
2023/06/17 11:40:44;;;;;;;13.60;8.32;;;21.30;99.90;;;;;;4990229;28;20569;-66
2023/06/17 11:43:11;;;;;;;10.02;7.43;;;21.40;99.90;;;;;;5000785;28;20217;-65
2023/06/17 11:45:39;;;;;;;12.93;8.63;;;21.40;99.90;;;;;;4995648;28;20202;-66
2023/06/17 11:48:06;;;;;;;12.57;8.40;;;21.50;99.90;;;;;;5005116;28;21478;-65
2023/06/17 11:50:33;;;;;;;11.43;7.55;;;21.60;99.90;;;;;;4974859;28;20238;-66
2023/06/17 11:53:02;;;;;;;13.82;8.07;;;21.80;99.90;;;;;;5005073;28;20202;-66
2023/06/17 11:55:33;;;;;;;14.38;8.50;;;21.70;99.90;;;;;;4995390;28;20229;-66
2023/06/17 11:58:05;;;;;;;11.13;7.85;;;21.70;99.90;;;;;;5004880;28;20639;-66
2023/06/17 12:00:36;;;;;;;14.07;7.95;;;21.60;99.90;;;;;;4992177;28;20226;-66
2023/06/17 12:03:04;;;;;;;9.80;7.82;;;21.60;99.90;;;;;;5005258;28;20731;-66
2023/06/17 12:05:32;;;;;;;12.57;8.55;;;21.60;99.90;;;;;;5008856;28;20756;-66
2023/06/17 12:08:00;;;;;;;9.30;7.32;;;21.70;99.90;;;;;;4978425;28;20237;-66
2023/06/17 12:10:27;;;;;;;14.55;8.55;;;21.70;99.90;;;;;;4981630;28;20206;-66
2023/06/17 12:12:56;;;;;;;18.30;7.97;;;21.70;99.90;;;;;;5005946;28;20209;-66
2023/06/17 12:15:29;;;;;;;13.45;7.13;;;21.70;99.90;;;;;;5006993;28;20217;-66
2023/06/17 12:17:56;;;;;;;13.07;7.43;;;21.80;99.90;;;;;;4995717;28;20300;-66
2023/06/17 12:20:23;;;;;;;13.57;7.97;;;21.80;99.90;;;;;;5010911;28;20229;-66
2023/06/17 12:22:51;;;;;;;11.25;7.75;;;22.00;99.90;;;;;;4977807;28;20214;-66
2023/06/17 12:25:18;;;;;;;13.10;7.05;;;22.30;99.90;;;;;;4994528;28;20242;-66
2023/06/17 12:27:45;;;;;;;14.80;7.68;;;22.20;99.90;;;;;;5011625;28;20229;-66
2023/06/17 12:30:13;;;;;;;13.57;7.32;;;22.20;99.90;;;;;;5003050;28;20308;-66
2023/06/17 12:32:42;;;;;;;11.60;7.25;;;22.20;99.90;;;;;;4996033;28;20207;-66